Time;durP1;ratioP1;P1;durP2;ratioP2;P2;SDS_P1;SDS_P2;PMS_P1;PMS_P2;Temp;Humidity;BMP_temperature;BMP_pressure;BME280_temperature;BME280_humidity;BME280_pressure;Samples;Min_cycle;Max_cycle;Signal;HPM_P1;HPM_P2
2022/05/27 00:00:15;;;;;;;5.47;5.00;;;19.40;99.90;;;;;;5062084;28;20221;-76
2022/05/27 00:02:42;;;;;;;5.75;5.25;;;19.40;99.90;;;;;;5062999;28;20226;-77
2022/05/27 00:05:10;;;;;;;5.45;4.63;;;19.40;99.90;;;;;;5062492;28;20225;-77
2022/05/27 00:07:37;;;;;;;5.53;5.05;;;19.50;99.90;;;;;;5064460;28;20224;-76
2022/05/27 00:10:05;;;;;;;5.22;4.82;;;19.50;99.90;;;;;;5059607;28;20214;-77
2022/05/27 00:12:32;;;;;;;5.70;5.05;;;19.50;99.90;;;;;;5063314;28;20210;-77
2022/05/27 00:15:00;;;;;;;5.93;5.43;;;19.50;99.90;;;;;;5066673;28;20218;-77
2022/05/27 00:17:29;;;;;;;5.55;5.05;;;19.50;99.90;;;;;;5063418;28;20198;-77
2022/05/27 00:19:56;;;;;;;6.20;5.60;;;19.50;99.90;;;;;;5063307;28;20785;-76
2022/05/27 00:22:23;;;;;;;5.18;4.78;;;19.50;99.90;;;;;;5063575;28;20217;-77
2022/05/27 00:24:50;;;;;;;5.30;4.80;;;19.50;99.90;;;;;;5062913;28;20214;-77
2022/05/27 00:27:17;;;;;;;5.55;5.05;;;19.50;99.90;;;;;;5060131;28;20203;-77
2022/05/27 00:29:44;;;;;;;6.97;5.38;;;19.50;99.90;;;;;;5061684;28;20720;-77
2022/05/27 00:32:11;;;;;;;5.30;4.90;;;19.60;99.90;;;;;;5060777;28;20210;-77
2022/05/27 00:34:39;;;;;;;7.15;4.90;;;19.60;99.90;;;;;;5060544;28;20219;-77
2022/05/27 00:37:07;;;;;;;6.13;4.72;;;19.50;99.90;;;;;;5061558;28;20527;-77
2022/05/27 00:39:35;;;;;;;4.63;4.32;;;19.50;99.90;;;;;;5060130;28;20329;-78
2022/05/27 00:42:02;;;;;;;4.68;4.30;;;19.50;99.90;;;;;;5066407;28;20218;-78
2022/05/27 00:44:29;;;;;;;4.88;4.38;;;19.50;99.90;;;;;;5066778;28;20730;-77
2022/05/27 00:47:01;;;;;;;5.78;4.95;;;19.40;99.90;;;;;;5070550;28;20672;-77
2022/05/27 00:49:29;;;;;;;4.68;4.25;;;19.40;99.90;;;;;;5058672;28;20264;-76
2022/05/27 00:52:06;;;;;;;4.65;4.25;;;19.40;99.90;;;;;;5065053;28;20217;-76
2022/05/27 00:54:34;;;;;;;4.55;4.15;;;19.40;99.90;;;;;;5058411;28;20214;-78
2022/05/27 00:57:06;;;;;;;4.28;3.88;;;19.40;99.90;;;;;;5059032;28;20468;-76
2022/05/27 00:59:38;;;;;;;4.70;4.30;;;19.50;99.90;;;;;;5059198;28;20229;-77
2022/05/27 01:02:05;;;;;;;4.45;4.10;;;19.40;99.90;;;;;;5064502;28;20214;-77
2022/05/27 01:04:34;;;;;;;5.20;4.70;;;19.40;99.90;;;;;;5058362;28;20651;-77
2022/05/27 01:07:05;;;;;;;6.47;4.45;;;19.40;99.90;;;;;;5061580;28;20240;-77
2022/05/27 01:09:33;;;;;;;4.00;3.70;;;19.30;99.90;;;;;;5063598;28;20250;-77
2022/05/27 01:12:18;;;;;;;4.63;4.22;;;19.30;99.90;;;;;;5063252;28;20202;-77
2022/05/27 01:14:59;;;;;;;4.38;3.97;;;19.30;99.90;;;;;;5063272;28;20229;-78
2022/05/27 01:17:37;;;;;;;5.18;4.68;;;19.30;99.90;;;;;;5063909;28;20241;-77
2022/05/27 01:20:19;;;;;;;4.95;4.45;;;19.20;99.90;;;;;;5064326;28;20219;-77
2022/05/27 01:23:04;;;;;;;4.78;4.15;;;19.20;99.90;;;;;;5059333;28;20218;-78
2022/05/27 01:26:00;;;;;;;4.38;3.97;;;19.10;99.90;;;;;;5060501;28;20214;-77
2022/05/27 01:28:44;;;;;;;5.47;4.97;;;19.00;99.90;;;;;;5062464;28;20187;-77
2022/05/27 01:31:33;;;;;;;5.65;4.30;;;19.00;99.90;;;;;;5062713;28;20194;-77
2022/05/27 01:34:08;;;;;;;5.50;5.00;;;18.90;99.90;;;;;;5062444;28;20218;-78
2022/05/27 01:36:52;;;;;;;4.68;4.32;;;18.90;99.90;;;;;;5062131;28;20183;-77
2022/05/27 01:39:35;;;;;;;4.70;4.38;;;18.90;99.90;;;;;;5061266;28;20233;-77
2022/05/27 01:42:11;;;;;;;4.57;4.22;;;18.80;99.90;;;;;;5062327;28;20603;-77
2022/05/27 01:44:44;;;;;;;5.38;4.40;;;18.80;99.90;;;;;;5063992;28;20217;-77
2022/05/27 01:47:18;;;;;;;4.88;4.00;;;18.80;99.90;;;;;;5062262;28;20237;-77
2022/05/27 01:49:48;;;;;;;4.97;4.47;;;18.80;99.90;;;;;;5060265;28;20222;-77
2022/05/27 01:52:21;;;;;;;5.07;4.57;;;18.80;99.90;;;;;;5057862;28;20225;-77
2022/05/27 01:54:53;;;;;;;4.85;4.20;;;18.80;99.90;;;;;;5062298;28;20222;-77
2022/05/27 01:57:26;;;;;;;5.43;4.93;;;18.80;99.90;;;;;;5057482;28;20203;-76
2022/05/27 02:00:07;;;;;;;4.93;4.40;;;18.80;99.90;;;;;;5065334;28;20559;-76
2022/05/27 02:02:40;;;;;;;5.35;4.57;;;18.80;99.90;;;;;;5081119;22;21522;-75
2022/05/27 02:05:12;;;;;;;4.80;4.40;;;18.80;99.90;;;;;;5061276;28;20277;-75
2022/05/27 02:07:42;;;;;;;4.63;4.22;;;18.80;99.90;;;;;;5063407;28;20198;-74
2022/05/27 02:10:14;;;;;;;4.57;4.28;;;18.80;99.90;;;;;;5059414;28;20600;-75
2022/05/27 02:12:48;;;;;;;5.68;4.45;;;18.80;99.90;;;;;;5064833;28;20215;-75
2022/05/27 02:15:18;;;;;;;5.53;5.00;;;18.70;99.90;;;;;;5064097;28;20240;-74
2022/05/27 02:17:53;;;;;;;4.75;4.35;;;18.70;99.90;;;;;;5062337;28;20298;-75
2022/05/27 02:20:28;;;;;;;4.35;3.95;;;18.70;99.90;;;;;;5060213;28;20241;-74
2022/05/27 02:22:59;;;;;;;4.28;3.88;;;18.70;99.90;;;;;;5060968;28;20228;-75
2022/05/27 02:25:31;;;;;;;5.28;4.78;;;18.60;99.90;;;;;;5062237;28;20226;-75
2022/05/27 02:28:04;;;;;;;6.13;4.63;;;18.60;99.90;;;;;;5060706;28;20191;-75
2022/05/27 02:30:34;;;;;;;4.10;3.80;;;18.60;99.90;;;;;;5062093;28;20249;-75
2022/05/27 02:35:55;;;;;;;3.95;3.65;;;18.60;99.90;;;;;;5069761;28;20294;-76
2022/05/27 02:38:22;;;;;;;4.55;4.18;;;18.50;99.90;;;;;;5064612;28;20749;-75
2022/05/27 02:40:59;;;;;;;5.00;4.60;;;18.50;99.90;;;;;;5063462;28;20614;-75
2022/05/27 02:43:40;;;;;;;5.05;4.55;;;18.50;99.90;;;;;;5062850;28;20222;-75
2022/05/27 02:46:19;;;;;;;5.70;5.10;;;18.50;99.90;;;;;;5042273;28;20238;-75
2022/05/27 02:48:56;;;;;;;4.40;4.10;;;18.50;99.90;;;;;;5039827;28;20198;-75
2022/05/27 02:51:28;;;;;;;6.13;4.38;;;18.60;99.90;;;;;;5040048;28;20199;-76
2022/05/27 02:54:01;;;;;;;4.28;3.97;;;18.60;99.90;;;;;;5038516;28;20389;-75
2022/05/27 02:56:34;;;;;;;4.38;4.07;;;18.60;99.90;;;;;;5044024;28;20257;-75
2022/05/27 02:59:02;;;;;;;4.65;4.28;;;18.60;99.90;;;;;;5038513;28;20269;-75
2022/05/27 03:01:29;;;;;;;4.95;4.30;;;18.60;99.90;;;;;;5044701;28;20202;-75
2022/05/27 03:03:57;;;;;;;5.00;4.22;;;18.60;99.90;;;;;;5041855;28;20281;-75
2022/05/27 03:06:36;;;;;;;7.07;4.57;;;18.60;99.90;;;;;;5047285;28;20207;-76
2022/05/27 03:09:08;;;;;;;4.43;4.13;;;18.60;99.90;;;;;;5040935;28;20662;-76
2022/05/27 03:11:46;;;;;;;6.50;4.70;;;18.50;99.90;;;;;;5045128;28;20196;-75
2022/05/27 03:14:36;;;;;;;5.15;4.55;;;18.50;99.90;;;;;;5046175;28;20303;-75
2022/05/27 03:17:15;;;;;;;4.20;3.80;;;18.50;99.90;;;;;;5049027;28;20206;-75
2022/05/27 03:20:23;;;;;;;4.72;4.32;;;18.50;99.90;;;;;;5048271;28;20230;-75
2022/05/27 03:23:07;;;;;;;4.50;4.10;;;18.50;99.90;;;;;;5001385;28;20239;-75
2022/05/27 03:25:41;;;;;;;4.75;4.35;;;18.40;99.90;;;;;;5045008;28;20227;-75
2022/05/27 03:28:14;;;;;;;4.20;3.90;;;18.40;99.90;;;;;;5062385;28;20198;-75
2022/05/27 03:30:50;;;;;;;4.57;4.15;;;18.30;99.90;;;;;;5062506;28;20271;-75
2022/05/27 03:33:25;;;;;;;4.80;3.90;;;18.30;99.90;;;;;;5062526;28;20703;-75
2022/05/27 03:35:57;;;;;;;3.90;3.60;;;18.20;99.90;;;;;;5057167;28;20758;-75
2022/05/27 03:38:29;;;;;;;4.63;4.32;;;18.20;99.90;;;;;;5059827;28;20198;-75
2022/05/27 03:41:04;;;;;;;4.22;3.92;;;18.20;99.90;;;;;;5057295;28;20214;-75
2022/05/27 03:43:34;;;;;;;4.70;4.22;;;18.20;99.90;;;;;;5059944;28;20214;-74
2022/05/27 03:46:03;;;;;;;4.72;4.35;;;18.20;99.90;;;;;;5060820;28;20617;-75
2022/05/27 03:48:32;;;;;;;4.15;3.80;;;18.20;99.90;;;;;;5061043;28;20198;-76
2022/05/27 03:51:06;;;;;;;6.70;4.38;;;18.20;99.90;;;;;;5057343;28;20222;-75
2022/05/27 03:56:17;;;;;;;4.85;4.40;;;18.10;99.90;;;;;;5058920;28;20549;-75
2022/05/27 03:58:44;;;;;;;4.90;4.50;;;18.10;99.90;;;;;;5060970;28;20264;-74
2022/05/27 04:01:11;;;;;;;4.80;4.35;;;18.10;99.90;;;;;;5061175;28;20236;-75
2022/05/27 04:03:38;;;;;;;4.57;4.18;;;18.10;99.90;;;;;;5060872;28;20283;-75
2022/05/27 04:06:07;;;;;;;4.60;4.10;;;18.10;99.90;;;;;;5061945;28;20214;-75
2022/05/27 04:08:34;;;;;;;4.25;3.85;;;18.20;99.90;;;;;;5057838;28;20222;-74
2022/05/27 04:11:01;;;;;;;4.47;4.15;;;18.20;99.90;;;;;;5062162;28;20300;-75
2022/05/27 04:13:28;;;;;;;4.78;4.38;;;18.20;99.90;;;;;;5060949;28;20229;-75
2022/05/27 04:15:55;;;;;;;4.55;4.15;;;18.20;99.90;;;;;;5059698;28;20218;-75
2022/05/27 04:18:22;;;;;;;4.93;4.53;;;18.20;99.90;;;;;;5064447;28;20207;-75
2022/05/27 04:20:49;;;;;;;4.28;3.97;;;18.20;99.90;;;;;;5058443;28;20230;-75
2022/05/27 04:23:17;;;;;;;4.35;3.95;;;18.30;99.90;;;;;;5066411;28;20222;-75
2022/05/27 04:25:47;;;;;;;4.35;4.05;;;18.30;99.90;;;;;;5058626;28;20385;-74
2022/05/27 04:28:14;;;;;;;4.50;4.10;;;18.30;99.90;;;;;;5060191;28;20202;-75
2022/05/27 04:30:42;;;;;;;7.95;4.45;;;18.40;99.90;;;;;;5057502;28;20627;-75
2022/05/27 04:33:10;;;;;;;4.40;4.10;;;18.40;99.90;;;;;;5061586;28;20309;-75
2022/05/27 04:35:37;;;;;;;4.22;3.92;;;18.50;99.90;;;;;;5058333;28;20222;-75
2022/05/27 04:38:04;;;;;;;4.72;4.32;;;18.50;99.90;;;;;;5064555;28;20191;-75
2022/05/27 04:40:33;;;;;;;4.65;4.20;;;18.50;99.90;;;;;;5061897;28;20224;-75
2022/05/27 04:43:01;;;;;;;4.35;4.03;;;18.50;99.90;;;;;;5063916;28;20218;-75
2022/05/27 04:45:29;;;;;;;4.35;3.95;;;18.60;99.90;;;;;;5063258;28;20582;-75
2022/05/27 04:47:56;;;;;;;3.63;3.33;;;18.60;99.90;;;;;;5064356;28;20201;-74
2022/05/27 04:50:24;;;;;;;4.15;3.75;;;18.70;99.90;;;;;;5060916;28;20720;-74
2022/05/27 04:52:51;;;;;;;5.25;3.92;;;18.70;99.90;;;;;;5066001;28;20267;-75
2022/05/27 04:55:18;;;;;;;5.40;4.13;;;18.70;99.90;;;;;;5062374;28;20586;-75
2022/05/27 04:57:50;;;;;;;4.40;4.00;;;18.70;99.90;;;;;;5066789;28;20513;-75
2022/05/27 05:00:20;;;;;;;4.40;4.00;;;18.70;99.90;;;;;;5060307;28;20219;-75
2022/05/27 05:02:47;;;;;;;6.80;4.22;;;18.70;99.90;;;;;;5064688;28;20661;-74
2022/05/27 05:05:17;;;;;;;4.32;3.97;;;18.80;99.90;;;;;;5059189;28;20222;-75
2022/05/27 05:07:46;;;;;;;4.00;3.65;;;18.80;99.90;;;;;;5065918;28;20630;-74
2022/05/27 05:10:16;;;;;;;3.67;3.40;;;19.00;99.90;;;;;;5060120;28;20307;-75
2022/05/27 05:12:44;;;;;;;3.83;3.53;;;19.20;99.90;;;;;;5065432;28;20643;-75
2022/05/27 05:15:13;;;;;;;4.18;3.83;;;19.40;99.90;;;;;;5065721;28;20302;-74
2022/05/27 05:17:40;;;;;;;4.68;4.07;;;19.60;99.90;;;;;;5064123;28;20248;-76
2022/05/27 05:20:10;;;;;;;4.65;4.25;;;19.70;99.90;;;;;;5064290;28;20704;-74
2022/05/27 05:22:37;;;;;;;4.15;3.83;;;19.90;99.90;;;;;;5060974;28;20221;-74
2022/05/27 05:25:04;;;;;;;4.60;4.20;;;20.00;99.90;;;;;;5064785;28;20210;-75
2022/05/27 05:27:33;;;;;;;4.85;4.03;;;20.00;99.90;;;;;;5061192;28;20195;-75
2022/05/27 05:30:00;;;;;;;3.67;3.35;;;19.90;99.90;;;;;;5063235;28;20221;-75
2022/05/27 05:32:28;;;;;;;4.90;4.07;;;19.90;99.90;;;;;;5062293;28;20237;-75
2022/05/27 05:34:58;;;;;;;3.80;3.50;;;19.90;99.90;;;;;;5064964;28;20218;-75
2022/05/27 05:37:25;;;;;;;6.88;4.70;;;19.90;99.90;;;;;;5058906;28;20205;-75
2022/05/27 05:39:52;;;;;;;5.10;4.05;;;20.00;99.90;;;;;;5065563;28;20297;-75
2022/05/27 05:42:21;;;;;;;4.60;4.13;;;20.10;99.90;;;;;;5059284;28;20251;-75
2022/05/27 05:44:48;;;;;;;4.97;4.47;;;20.30;99.90;;;;;;5063215;28;20229;-74
2022/05/27 05:47:15;;;;;;;5.45;3.95;;;20.30;99.90;;;;;;5061664;28;20848;-75
2022/05/27 05:49:44;;;;;;;6.32;4.28;;;20.30;99.90;;;;;;5063106;28;20187;-76
2022/05/27 05:52:11;;;;;;;4.90;4.45;;;20.40;99.90;;;;;;5059783;28;20202;-75
2022/05/27 05:54:38;;;;;;;6.40;4.05;;;20.50;99.90;;;;;;5065081;28;20589;-74
2022/05/27 05:57:06;;;;;;;7.18;3.85;;;20.60;99.90;;;;;;5059127;28;20199;-75
2022/05/27 05:59:35;;;;;;;4.40;4.00;;;20.60;99.90;;;;;;5062342;28;20217;-75
2022/05/27 06:02:02;;;;;;;5.18;4.28;;;20.70;99.90;;;;;;5064688;28;20194;-75
2022/05/27 06:04:30;;;;;;;4.90;4.50;;;20.90;99.90;;;;;;5059473;28;20223;-75
2022/05/27 06:06:58;;;;;;;5.18;4.68;;;21.00;99.90;;;;;;5064847;28;20191;-75
2022/05/27 06:09:26;;;;;;;4.85;4.38;;;21.10;99.90;;;;;;5061251;28;20657;-74
2022/05/27 06:11:54;;;;;;;3.92;3.63;;;21.20;99.90;;;;;;5064118;28;20222;-75
2022/05/27 06:14:21;;;;;;;4.80;4.40;;;21.30;99.90;;;;;;5063214;28;20303;-75
2022/05/27 06:16:48;;;;;;;7.78;4.63;;;21.30;99.90;;;;;;5060724;28;20472;-75
2022/05/27 06:19:15;;;;;;;5.10;4.30;;;21.30;99.90;;;;;;5060214;28;20712;-75
2022/05/27 06:21:42;;;;;;;5.38;4.30;;;21.30;99.90;;;;;;5063046;28;20210;-75
2022/05/27 06:24:11;;;;;;;6.95;4.75;;;21.40;99.90;;;;;;5060707;28;20211;-75
2022/05/27 06:26:39;;;;;;;6.35;4.70;;;21.40;99.90;;;;;;5063462;28;20222;-75
2022/05/27 06:34:36;;;;;;;5.63;3.90;;;21.50;99.90;;;;;;5059860;28;20194;-75
2022/05/27 06:37:06;;;;;;;4.60;4.20;;;21.60;99.90;;;;;;5062002;28;20707;-75
2022/05/27 06:39:37;;;;;;;4.50;4.05;;;21.70;99.90;;;;;;5061660;28;20214;-75
2022/05/27 06:42:07;;;;;;;4.22;3.63;;;21.70;99.90;;;;;;5063192;28;20287;-75
2022/05/27 06:44:34;;;;;;;4.70;4.30;;;21.80;99.90;;;;;;5060860;28;20237;-74
2022/05/27 06:47:02;;;;;;;5.50;4.20;;;22.00;99.90;;;;;;5062245;28;20218;-75
2022/05/27 06:49:29;;;;;;;4.03;3.58;;;22.00;99.90;;;;;;5061874;28;20198;-76
2022/05/27 06:51:56;;;;;;;4.30;3.90;;;22.20;99.90;;;;;;5056543;28;20219;-75
2022/05/27 06:54:23;;;;;;;5.45;4.10;;;22.40;99.90;;;;;;5063129;28;20223;-75
2022/05/27 06:56:52;;;;;;;4.22;3.78;;;22.60;99.90;;;;;;5058091;28;20516;-75
2022/05/27 06:59:20;;;;;;;4.53;3.75;;;22.70;99.90;;;;;;5062768;28;20265;-74
2022/05/27 07:01:48;;;;;;;4.68;4.10;;;22.90;99.90;;;;;;5058585;28;20218;-75
2022/05/27 07:04:17;;;;;;;4.28;3.88;;;23.20;99.90;;;;;;5062362;28;20237;-75
2022/05/27 07:06:46;;;;;;;4.93;4.43;;;23.30;99.90;;;;;;5059762;28;20279;-75
2022/05/27 07:09:16;;;;;;;4.93;4.00;;;23.30;99.90;;;;;;5062255;28;20198;-75
2022/05/27 07:11:45;;;;;;;4.63;4.18;;;23.30;99.90;;;;;;5059879;28;20218;-75
2022/05/27 07:14:13;;;;;;;4.65;4.25;;;23.40;99.90;;;;;;5061309;28;20209;-75
2022/05/27 07:16:41;;;;;;;6.00;4.07;;;23.40;99.90;;;;;;5060040;28;20241;-76
2022/05/27 07:19:08;;;;;;;4.70;4.30;;;23.30;99.90;;;;;;5062174;28;20706;-75
2022/05/27 07:21:39;;;;;;;5.97;4.32;;;23.20;99.90;;;;;;5058673;28;20233;-75
2022/05/27 07:24:08;;;;;;;5.38;4.03;;;23.10;99.90;;;;;;5060328;28;20275;-75
2022/05/27 07:26:35;;;;;;;6.22;4.50;;;23.20;99.90;;;;;;5059941;28;20220;-75
2022/05/27 07:29:02;;;;;;;4.82;4.40;;;23.30;99.90;;;;;;5060048;28;20202;-76
2022/05/27 07:31:31;;;;;;;3.90;3.60;;;23.20;99.90;;;;;;5061205;28;20421;-75
2022/05/27 07:33:58;;;;;;;4.68;4.13;;;23.40;99.90;;;;;;5064052;28;20279;-74
2022/05/27 07:36:25;;;;;;;4.68;4.28;;;23.60;99.90;;;;;;5060764;28;20217;-75
2022/05/27 07:38:52;;;;;;;6.25;4.93;;;23.60;99.90;;;;;;5059215;28;20252;-76
2022/05/27 07:41:20;;;;;;;5.38;4.10;;;23.60;99.90;;;;;;5060260;28;20222;-75
2022/05/27 07:43:47;;;;;;;6.55;4.78;;;23.60;99.90;;;;;;5061724;28;20288;-75
2022/05/27 07:46:15;;;;;;;6.57;4.53;;;23.50;99.90;;;;;;5058125;28;21268;-76
2022/05/27 07:48:45;;;;;;;6.15;3.92;;;23.60;99.90;;;;;;5060198;28;20199;-76
2022/05/27 07:51:12;;;;;;;5.57;4.43;;;23.60;99.90;;;;;;5061223;28;20218;-76
2022/05/27 07:53:39;;;;;;;5.85;4.70;;;23.70;99.90;;;;;;5059972;28;20222;-75
2022/05/27 07:56:08;;;;;;;5.47;4.10;;;23.80;99.90;;;;;;5058374;28;20221;-75
2022/05/27 07:58:35;;;;;;;5.13;4.57;;;23.80;99.90;;;;;;5056316;28;20311;-75
2022/05/27 08:01:03;;;;;;;4.40;4.10;;;23.80;99.90;;;;;;5060384;28;20226;-75
2022/05/27 08:03:30;;;;;;;5.18;4.05;;;23.90;99.90;;;;;;5059698;28;20445;-75
2022/05/27 08:05:59;;;;;;;4.80;4.20;;;23.90;99.90;;;;;;5060654;28;20222;-76
2022/05/27 08:08:29;;;;;;;5.25;3.85;;;23.90;99.90;;;;;;5060614;28;20195;-75
2022/05/27 08:10:56;;;;;;;6.32;3.90;;;24.10;99.90;;;;;;5058097;28;20299;-75
2022/05/27 08:13:23;;;;;;;4.28;3.88;;;24.20;99.90;;;;;;5062341;28;20218;-76
2022/05/27 08:15:52;;;;;;;5.47;3.95;;;24.40;99.90;;;;;;5065277;28;20214;-75
2022/05/27 08:18:19;;;;;;;5.60;3.75;;;24.90;99.90;;;;;;5066807;28;20278;-75
2022/05/27 08:20:46;;;;;;;6.05;4.15;;;25.20;99.90;;;;;;5059202;28;20706;-76
2022/05/27 08:23:15;;;;;;;5.10;3.60;;;25.30;99.90;;;;;;5064622;28;20221;-75
2022/05/27 08:25:43;;;;;;;6.28;3.97;;;25.20;99.90;;;;;;5062101;28;20218;-76
2022/05/27 08:28:10;;;;;;;4.28;3.90;;;25.10;99.90;;;;;;5060457;28;20203;-75
2022/05/27 08:30:39;;;;;;;5.57;4.38;;;25.00;99.90;;;;;;5065180;28;20218;-76
2022/05/27 08:33:06;;;;;;;4.10;3.70;;;25.10;99.90;;;;;;5064130;28;20216;-75
2022/05/27 08:38:23;;;;;;;4.47;3.90;;;25.50;99.90;;;;;;5063868;28;20272;-75
2022/05/27 08:41:07;;;;;;;5.00;4.13;;;25.50;99.90;;;;;;5065167;28;20456;-76
2022/05/27 08:43:44;;;;;;;4.53;3.83;;;25.40;99.90;;;;;;5061937;28;20630;-76
2022/05/27 08:46:20;;;;;;;4.32;3.60;;;25.40;99.90;;;;;;5060759;28;20226;-76
2022/05/27 08:48:51;;;;;;;6.93;3.72;;;25.40;99.90;;;;;;5060289;28;20198;-75
2022/05/27 08:51:21;;;;;;;5.00;4.00;;;25.50;99.90;;;;;;5065090;28;20263;-75
2022/05/27 08:53:54;;;;;;;9.70;4.30;;;25.70;99.90;;;;;;5063781;28;20240;-76
2022/05/27 08:59:31;;;;;;;4.30;3.72;;;25.90;99.90;;;;;;5057781;28;20267;-75
2022/05/27 09:02:13;;;;;;;4.07;3.72;;;26.10;99.90;;;;;;5057939;28;20229;-76
2022/05/27 09:04:48;;;;;;;3.80;3.50;;;26.00;99.90;;;;;;5061113;28;20225;-76
2022/05/27 09:07:31;;;;;;;4.00;3.60;;;26.20;99.90;;;;;;5063948;28;20222;-76
2022/05/27 09:10:02;;;;;;;5.95;3.90;;;26.40;99.90;;;;;;5059684;28;20199;-76
2022/05/27 09:12:54;;;;;;;4.35;3.63;;;26.40;99.90;;;;;;5065937;28;20218;-76
2022/05/27 09:15:32;;;;;;;4.30;3.90;;;26.50;99.90;;;;;;5061531;28;20201;-75
2022/05/27 09:18:05;;;;;;;5.18;4.38;;;26.70;99.90;;;;;;5058776;28;20202;-78
2022/05/27 09:20:45;;;;;;;5.60;3.80;;;26.80;99.90;;;;;;5063181;28;20241;-77
2022/05/27 09:23:38;;;;;;;5.80;4.40;;;26.80;99.90;;;;;;5061963;28;20211;-78
2022/05/27 09:26:16;;;;;;;4.63;4.22;;;27.10;99.90;;;;;;5063858;28;20214;-78
2022/05/27 09:28:52;;;;;;;5.80;4.00;;;27.20;99.90;;;;;;5064939;28;20714;-78
2022/05/27 09:31:31;;;;;;;6.40;4.18;;;27.20;99.90;;;;;;5062136;28;20574;-78
2022/05/27 09:33:58;;;;;;;3.90;3.60;;;26.90;99.90;;;;;;5063557;28;20218;-78
2022/05/27 09:36:34;;;;;;;4.82;4.18;;;26.80;99.90;;;;;;5063142;28;20215;-78
2022/05/27 09:39:04;;;;;;;4.20;3.85;;;26.90;99.90;;;;;;5061470;28;20664;-78
2022/05/27 09:41:41;;;;;;;4.53;4.00;;;26.90;99.90;;;;;;5064703;28;20242;-76
2022/05/27 09:44:21;;;;;;;5.32;3.60;;;26.80;99.90;;;;;;5063415;28;20210;-78
2022/05/27 09:46:48;;;;;;;4.50;3.80;;;27.10;99.90;;;;;;5064994;28;20216;-75
2022/05/27 09:49:15;;;;;;;5.55;4.43;;;27.20;99.90;;;;;;5061106;28;20207;-78
2022/05/27 09:51:42;;;;;;;4.63;4.22;;;27.10;99.90;;;;;;5062334;28;20213;-78
2022/05/27 09:54:35;;;;;;;7.55;4.68;;;27.10;99.90;;;;;;5059704;28;20215;-77
2022/05/27 09:57:17;;;;;;;5.88;4.45;;;27.30;99.90;;;;;;5063245;28;20214;-77
2022/05/27 09:59:46;;;;;;;4.35;3.97;;;27.40;99.90;;;;;;5064858;28;20205;-77
2022/05/27 10:02:18;;;;;;;4.95;3.85;;;27.60;99.90;;;;;;5060403;28;20792;-77
2022/05/27 10:04:57;;;;;;;4.75;4.28;;;27.80;99.90;;;;;;5059597;28;20210;-78
2022/05/27 10:07:31;;;;;;;6.13;4.80;;;27.80;99.90;;;;;;5101857;22;20280;-79
2022/05/27 10:10:16;;;;;;;5.55;4.60;;;28.00;99.90;;;;;;5059047;28;20193;-79
2022/05/27 10:12:44;;;;;;;5.97;4.70;;;28.10;99.90;;;;;;5085925;28;20720;-79
2022/05/27 10:15:24;;;;;;;8.25;4.65;;;28.30;99.90;;;;;;5089949;28;20247;-81
2022/05/27 10:17:51;;;;;;;5.45;3.85;;;28.20;99.90;;;;;;5068459;28;20271;-79
2022/05/27 10:20:22;;;;;;;7.32;4.32;;;28.10;99.90;;;;;;5070113;28;20673;-80
2022/05/27 10:23:02;;;;;;;4.53;3.83;;;28.20;99.90;;;;;;5066071;28;20218;-79
2022/05/27 10:25:35;;;;;;;4.88;3.78;;;28.30;99.90;;;;;;5066252;28;20209;-79
2022/05/27 10:28:05;;;;;;;4.32;3.95;;;28.30;99.90;;;;;;5069665;28;20241;-78
2022/05/27 10:30:35;;;;;;;6.25;4.30;;;28.50;99.90;;;;;;5068101;28;20206;-80
2022/05/27 10:33:18;;;;;;;6.07;4.18;;;28.40;99.90;;;;;;5069585;28;20708;-78
2022/05/27 10:35:48;;;;;;;6.28;3.80;;;28.50;99.90;;;;;;5066991;28;20901;-78
2022/05/27 10:38:37;;;;;;;4.55;4.05;;;28.50;99.90;;;;;;5068144;28;20240;-79
2022/05/27 10:41:10;;;;;;;3.97;3.60;;;28.40;99.90;;;;;;5059464;28;20222;-81
2022/05/27 10:43:54;;;;;;;5.20;4.28;;;28.50;99.90;;;;;;5068507;28;20198;-79
2022/05/27 10:46:28;;;;;;;5.28;4.30;;;28.70;99.90;;;;;;5066571;28;20220;-78
2022/05/27 10:49:07;;;;;;;8.60;4.35;;;28.70;99.90;;;;;;5071148;28;20548;-80
2022/05/27 10:51:49;;;;;;;6.18;4.60;;;28.90;99.90;;;;;;5068119;28;20210;-78
2022/05/27 10:54:37;;;;;;;4.78;4.25;;;29.00;99.90;;;;;;5067079;28;20190;-78
2022/05/27 11:03:28;;;;;;;5.68;4.43;;;28.90;99.90;;;;;;5092802;28;20248;-80
2022/05/27 11:06:19;;;;;;;4.85;4.35;;;28.70;99.90;;;;;;5093060;28;20587;-79
2022/05/27 11:08:57;;;;;;;5.70;3.85;;;28.70;99.90;;;;;;5098535;28;20193;-79
2022/05/27 11:11:33;;;;;;;5.20;4.25;;;28.70;99.90;;;;;;5089044;28;20213;-80
2022/05/27 11:17:07;;;;;;;6.20;4.50;;;28.80;99.90;;;;;;5051857;28;20307;-78
2022/05/27 11:20:06;;;;;;;6.72;4.22;;;28.60;99.90;;;;;;5067273;28;20280;-78
2022/05/27 11:22:38;;;;;;;6.03;4.20;;;28.70;99.90;;;;;;5057070;28;20217;-79
2022/05/27 11:25:21;;;;;;;6.95;4.38;;;28.90;99.90;;;;;;5066889;28;20668;-81
2022/05/27 11:28:32;;;;;;;4.95;4.03;;;29.00;99.90;;;;;;5065837;28;20226;-78
2022/05/27 11:31:11;;;;;;;7.60;4.60;;;29.10;99.90;;;;;;5035869;28;20329;-79
2022/05/27 11:33:44;;;;;;;7.05;4.38;;;29.10;99.90;;;;;;5065527;28;20220;-77
2022/05/27 11:36:28;;;;;;;8.45;4.20;;;29.10;99.90;;;;;;5066094;28;20249;-78
2022/05/27 11:39:28;;;;;;;8.57;4.88;;;29.10;99.90;;;;;;5063179;28;20687;-78
2022/05/27 11:42:05;;;;;;;4.40;4.00;;;29.20;99.90;;;;;;5063502;28;20455;-79
2022/05/27 11:44:40;;;;;;;5.38;4.47;;;29.40;99.90;;;;;;5067463;28;20201;-83
2022/05/27 11:47:37;;;;;;;4.75;3.67;;;29.50;99.90;;;;;;5067595;28;20214;-78
2022/05/27 11:50:22;;;;;;;5.35;4.65;;;29.50;99.90;;;;;;5064915;28;20191;-78
2022/05/27 11:53:07;;;;;;;4.50;4.10;;;29.50;99.90;;;;;;5068139;28;20222;-80
2022/05/27 11:55:49;;;;;;;6.57;4.45;;;29.50;99.90;;;;;;5065155;28;20194;-80
2022/05/27 11:58:21;;;;;;;5.68;4.20;;;29.60;99.90;;;;;;5096505;28;20232;-79
2022/05/27 12:00:53;;;;;;;6.32;4.10;;;29.80;99.90;;;;;;5097266;28;20186;-80
2022/05/27 12:03:29;;;;;;;3.83;3.35;;;30.00;99.90;;;;;;5063329;28;20621;-77
2022/05/27 12:06:00;;;;;;;7.97;3.88;;;30.00;99.90;;;;;;5063782;28;20193;-80
2022/05/27 12:08:34;;;;;;;7.78;4.35;;;30.00;99.90;;;;;;5066620;28;20210;-81
2022/05/27 12:11:07;;;;;;;7.05;3.80;;;30.00;99.90;;;;;;5066327;28;20507;-81
2022/05/27 12:13:39;;;;;;;7.35;4.22;;;30.00;99.90;;;;;;5066417;28;20209;-80
2022/05/27 12:16:11;;;;;;;6.45;4.50;;;30.00;99.90;;;;;;5065736;28;20427;-79
2022/05/27 12:18:43;;;;;;;6.57;4.38;;;30.10;99.90;;;;;;5064935;28;20285;-79
2022/05/27 12:21:14;;;;;;;4.88;3.80;;;30.10;99.90;;;;;;5066609;28;20249;-81
2022/05/27 12:23:46;;;;;;;8.13;3.90;;;30.00;99.90;;;;;;5067997;28;20604;-79
2022/05/27 12:26:14;;;;;;;4.72;3.53;;;30.00;99.90;;;;;;5068183;28;20201;-78
2022/05/27 12:28:44;;;;;;;7.30;4.70;;;30.10;99.90;;;;;;5068583;28;20323;-80
2022/05/27 12:31:13;;;;;;;5.00;4.15;;;30.00;99.90;;;;;;5068315;28;20190;-79
2022/05/27 12:33:40;;;;;;;5.72;4.15;;;30.00;99.90;;;;;;5065950;28;20199;-80
2022/05/27 12:36:13;;;;;;;5.47;4.05;;;30.10;99.90;;;;;;5065590;28;20186;-80
2022/05/27 12:38:46;;;;;;;6.63;4.25;;;30.10;99.90;;;;;;5066616;28;20197;-80
2022/05/27 12:41:18;;;;;;;5.00;3.80;;;30.10;99.90;;;;;;5066339;28;20203;-80
2022/05/27 12:43:58;;;;;;;9.35;4.72;;;30.10;99.90;;;;;;5067851;28;20202;-80
2022/05/27 12:46:33;;;;;;;9.38;4.15;;;30.00;99.90;;;;;;5063834;28;20674;-79
2022/05/27 12:49:27;;;;;;;6.75;4.30;;;30.10;99.90;;;;;;5066840;28;20190;-78
2022/05/27 12:51:56;;;;;;;6.63;4.63;;;30.20;99.90;;;;;;5062869;28;20214;-81
2022/05/27 12:55:01;;;;;;;6.30;4.35;;;30.30;99.90;;;;;;5066566;28;20607;-79
2022/05/27 13:00:57;;;;;;;5.95;4.50;;;30.10;99.90;;;;;;5071453;28;20256;-81
2022/05/27 13:03:48;;;;;;;7.68;4.78;;;30.00;99.90;;;;;;5085778;28;20695;-79
2022/05/27 13:06:31;;;;;;;7.05;4.78;;;30.00;99.90;;;;;;5089199;28;20671;-79
2022/05/27 13:09:01;;;;;;;5.40;4.45;;;30.00;99.90;;;;;;5085239;28;20189;-78
2022/05/27 13:11:48;;;;;;;7.30;4.50;;;30.00;99.90;;;;;;5089292;28;20221;-78
2022/05/27 13:14:23;;;;;;;5.88;4.63;;;30.00;99.90;;;;;;5089834;28;20573;-80
2022/05/27 13:17:06;;;;;;;5.28;4.38;;;30.00;99.90;;;;;;5080753;28;20222;-82
2022/05/27 13:19:37;;;;;;;6.90;5.05;;;30.10;99.90;;;;;;5068621;28;20244;-80
2022/05/27 13:22:12;;;;;;;5.68;4.22;;;30.10;99.90;;;;;;5069589;28;20369;-81
2022/05/27 13:24:42;;;;;;;8.70;5.53;;;30.30;99.90;;;;;;5070245;28;20234;-80
2022/05/27 13:27:28;;;;;;;7.18;4.53;;;30.30;99.90;;;;;;5068162;28;20308;-77
2022/05/27 13:30:11;;;;;;;8.70;5.43;;;30.30;99.90;;;;;;5070577;28;20194;-81
2022/05/27 13:32:57;;;;;;;8.57;5.50;;;30.10;99.90;;;;;;5070235;28;20214;-80
2022/05/27 13:35:24;;;;;;;7.43;5.03;;;30.00;99.90;;;;;;5067254;28;20197;-78
2022/05/27 13:37:54;;;;;;;8.05;5.75;;;29.90;99.90;;;;;;5068773;28;20291;-79
2022/05/27 13:40:27;;;;;;;8.90;5.70;;;29.80;99.90;;;;;;5065694;28;20209;-79
2022/05/27 13:42:57;;;;;;;7.10;5.25;;;29.80;99.90;;;;;;5065553;28;20246;-79
2022/05/27 13:45:29;;;;;;;8.07;5.70;;;29.90;99.90;;;;;;5069206;28;20186;-81